Wednesday, December 12, 2018, 10:56 PM EST
Back to Local

KMMK, Meriden Markham Municipal Airport

Location: Meriden, CT, United States Lat: 41.517
Local Time: 10:56 PM EST ( 3:56 GMT) Lon: -72.833
Time Zone: US/Eastern Elev: 101 ft

Show me the last for .
Show Decoded

2018-12-12 21:53 METAR KMMK 130253Z AUTO 02006KT 10SM CLR M02/M09 A3028 RMK AO2 SLP256 T10171094
                 53022 =
2018-12-12 20:53 METAR KMMK 130153Z AUTO 00000KT 10SM CLR M01/M08 A3027 RMK AO2 SLP250 T10111078
                 =
2018-12-12 19:53 METAR KMMK 130053Z AUTO 02004KT 10SM CLR 00/M07 A3023 RMK AO2 SLP240 T00001072 =
2018-12-12 18:53 METAR KMMK 122353Z AUTO 00000KT 10SM CLR M02/M07 A3022 RMK AO2 SLP234 T10221067
                 10050 21022 53026 =
2018-12-12 17:53 METAR KMMK 122253Z AUTO 30004KT 10SM CLR M01/M07 A3019 RMK AO2 SLP226 T10061072
                 =
2018-12-12 16:53 METAR KMMK 122153Z AUTO 35003KT 10SM CLR 02/M07 A3016 RMK AO2 SLP215 T00171072 =
2018-12-12 15:53 METAR KMMK 122053Z AUTO 31007KT 10SM FEW048 03/M08 A3014 RMK AO2 SLP208
                 T00281078 53021 =
2018-12-12 14:53 METAR KMMK 121953Z AUTO 33007KT 10SM FEW050 04/M08 A3011 RMK AO2 SLP196
                 T00441078 =
2018-12-12 13:53 METAR KMMK 121853Z AUTO 35008G16KT 10SM CLR 04/M08 A3008 RMK AO2 SLP186
                 T00441078 =
2018-12-12 12:53 METAR KMMK 121753Z AUTO 34008G16KT 10SM FEW048 04/M08 A3008 RMK AO2 SLP187
                 T00391078 10044 21011 58007 =
2018-12-12 11:53 METAR KMMK 121653Z AUTO 31010KT 10SM FEW046 03/M08 A3010 RMK AO2 SLP193
                 T00281078 =
2018-12-12 10:53 METAR KMMK 121553Z AUTO 32010KT 10SM CLR 02/M07 A3011 RMK AO2 SLP196 T00221072 =
2018-12-12 09:53 METAR KMMK 121453Z AUTO 31010KT 10SM CLR 02/M07 A3010 RMK AO2 SLP194 T00171072
                 53028 =
2018-12-12 08:53 METAR KMMK 121353Z AUTO 30010KT 10SM CLR 01/M07 A3006 RMK AO2 SLP182 T00061067 =
2018-12-12 07:53 METAR KMMK 121253Z AUTO 32007KT 10SM SCT040 BKN075 M01/M07 A3005 RMK AO2 SLP177
                 T10061067 =
2018-12-12 06:53 METAR KMMK 121153Z AUTO 30009KT 10SM BKN075 M01/M06 A3002 RMK AO2 SLP166
                 T10111061 11006 21022 53020 =
2018-12-12 05:53 METAR KMMK 121053Z AUTO 31007KT 10SM OVC070 M01/M06 A2999 RMK AO2 SLP158
                 T10061061 =
2018-12-12 04:53 METAR KMMK 120953Z AUTO 32005KT 10SM OVC075 M01/M06 A2997 RMK AO2 SLP150
                 T10061061 =
2018-12-12 03:53 METAR KMMK 120853Z AUTO 31008KT 10SM OVC075 M01/M07 A2996 RMK AO2 SLP146
                 T10111067 53010 =
2018-12-12 02:53 METAR KMMK 120753Z AUTO 32007KT 10SM BKN075 M02/M07 A2994 RMK AO2 SLP141
                 T10171072 =
2018-12-12 01:53 METAR KMMK 120653Z AUTO 32008KT 10SM CLR M02/M07 A2993 RMK AO2 SLP137 T10171072
                 =
2018-12-12 00:53 METAR KMMK 120553Z AUTO 32005KT 10SM BKN060 M01/M07 A2993 RMK AO2 SLP135
                 T10111072 10000 21044 55004 =
2018-12-11 23:53 METAR KMMK 120453Z AUTO 00000KT 10SM OVC050 M01/M07 A2992 RMK AO2 SLP133
                 T10061067 400331094 =

Support USWX by starting your Amazon purchase here.